| Date | Time | Temp. (oF) | Dew Point (oF) | Rel. Hum. (%) | Press. (in.) | Wind Dir. | Wind Speed (mph) | Hourly Rainfall (in.) |
|
|---|---|---|---|---|---|---|---|---|---|
| 1 | 08/11 | 00:00 | 75 | 72 | 93 | 29.96 | SSW | 0 | 0.00 |
| 2 | 08/10 | 23:00 | 76 | 73 | 93 | 29.97 | SSW | 2 | 0.00 |
| 3 | 08/10 | 22:00 | 77 | 73 | 89 | 29.96 | S | 0 | 0.00 |
| 4 | 08/10 | 21:00 | 81 | 74 | 81 | 29.94 | S | 0 | 0.00 |
| 5 | 08/10 | 20:00 | 83 | 73 | 73 | 29.92 | SSW | 3 | 0.00 |
| 6 | 08/10 | 19:00 | 84 | 71 | 67 | 29.92 | SSW | 3 | 0.00 |
| 7 | 08/10 | 18:00 | 85 | 72 | 67 | 29.91 | SSW | 5 | 0.00 |
| 8 | 08/10 | 17:00 | 86 | 73 | 66 | 29.92 | W | 2 | 0.00 |
| 9 | 08/10 | 16:00 | 86 | 70 | 61 | 29.94 | WNW | 4 | 0.00 |
| 10 | 08/10 | 15:00 | 86 | 72 | 64 | 29.97 | NW | 2 | 0.00 |
| 11 | 08/10 | 14:00 | 85 | 70 | 63 | 29.99 | S | 7 | 0.00 |
| 12 | 08/10 | 13:00 | 82 | 72 | 73 | 30.00 | SSE | 2 | 0.00 |
| 13 | 08/10 | 12:00 | 81 | 73 | 77 | 30.01 | W | 1 | 0.00 |
| 14 | 08/10 | 11:00 | 80 | 72 | 78 | 30.02 | SSW | 3 | 0.00 |
| 15 | 08/10 | 10:00 | 77 | 73 | 88 | 30.04 | E | 1 | 0.00 |
| 16 | 08/10 | 09:00 | 73 | 72 | 100 | 30.05 | WNW | 2 | 0.00 |
| 17 | 08/10 | 08:00 | 70 | 69 | 100 | 30.05 | NE | 0 | 0.00 |
| 18 | miss | miss | miss | miss | miss | miss | miss | miss | |
| 19 | 08/10 | 07:13 | 68 | 68 | 100 | 30.05 | S | 0 | 0.00 |
| 20 | miss | miss | miss | miss | miss | miss | miss | miss | |
| 21 | 08/10 | 07:11 | 68 | 68 | 100 | 30.05 | S | 0 | 0.00 |
| 22 | miss | miss | miss | miss | miss | miss | miss | miss | |
| 23 | 08/10 | 07:09 | 68 | 68 | 100 | 30.05 | SSE | 0 | 0.00 |
| 24 | miss | miss | miss | miss | miss | miss | miss | miss | |
| 25 | 08/10 | 07:07 | 68 | 68 | 100 | 30.05 | SSE | 0 | 0.00 |
| 26 | miss | miss | miss | miss | miss | miss | miss | miss | |
| 27 | 08/10 | 07:07 | 68 | 68 | 100 | 30.05 | SSE | 0 | 0.00 |
| 28 | miss | miss | miss | miss | miss | miss | miss | miss | |
| 29 | 08/10 | 07:07 | 68 | 68 | 100 | 30.05 | SSE | 0 | 0.00 |
| 30 | miss | miss | miss | miss | miss | miss | miss | miss | |
| 31 | 08/10 | 07:07 | 68 | 68 | 100 | 30.05 | SSE | 0 | 0.00 |
| 32 | miss | miss | miss | miss | miss | miss | miss | miss | |
| 33 | 08/10 | 07:07 | 68 | 68 | 100 | 30.05 | SSE | 0 | 0.00 |
| 34 | miss | miss | miss | miss | miss | miss | miss | miss | |
| 35 | 08/10 | 07:07 | 68 | 68 | 100 | 30.05 | SSE | 0 | 0.00 |
| 36 | miss | miss | miss | miss | miss | miss | miss | miss | |
| 37 | 08/10 | 07:07 | 68 | 68 | 100 | 30.05 | SSE | 0 | 0.00 |
| 38 | miss | miss | miss | miss | miss | miss | miss | miss | |
| 39 | 08/10 | 07:07 | 68 | 68 | 100 | 30.05 | SSE | 0 | 0.00 |
| 40 | miss | miss | miss | miss | miss | miss | miss | miss | |
| 41 | 08/10 | 07:07 | 68 | 68 | 100 | 30.05 | SSE | 0 | 0.00 |
| 42 | 08/10 | 07:00 | 68 | 68 | 100 | 30.05 | SSE | 0 | 0.00 |
| 43 | 08/10 | 06:00 | 69 | 68 | 100 | 30.05 | WNW | 1 | 0.00 |
| 44 | 08/10 | 05:00 | 69 | 68 | 100 | 30.06 | WNW | 0 | 0.00 |
| 45 | 08/10 | 04:00 | 68 | 68 | 100 | 30.06 | SW | 0 | 0.00 |
| 46 | 08/10 | 03:00 | 68 | 68 | 100 | 30.07 | NW | 0 | 0.00 |
| 47 | 08/10 | 02:00 | 69 | 68 | 100 | 30.07 | SSW | 0 | 0.00 |
| 48 | 08/10 | 01:00 | 70 | 69 | 97 | 30.09 | ESE | 0 | 0.00 |
| 49 | 08/10 | 00:00 | 71 | 69 | 95 | 30.08 | E | 1 | 0.00 |
| 50 | 08/09 | 23:00 | 72 | 69 | 93 | 30.08 | E | 2 | 0.00 |
| 51 | 08/09 | 22:00 | 74 | 70 | 90 | 30.08 | S | 0 | 0.00 |
| 52 | 08/09 | 21:00 | 74 | 70 | 89 | 30.08 | E | 1 | 0.00 |
| 53 | 08/09 | 20:00 | 75 | 70 | 86 | 30.08 | S | 5 | 0.00 |
| 54 | miss | miss | miss | miss | miss | miss | miss | miss | |
| 55 | 08/09 | 19:06 | 77 | 71 | 83 | 30.08 | SSE | 4 | 0.00 |
| 56 | miss | miss | miss | miss | miss | miss | miss | miss | |
| 57 | 08/09 | 19:04 | 77 | 71 | 82 | 30.08 | SSE | 3 | 0.00 |
| 58 | miss | miss | miss | miss | miss | miss | miss | miss | |
| 59 | 08/09 | 19:02 | 77 | 71 | 82 | 30.09 | S | 3 | 0.00 |
| 60 | miss | miss | miss | miss | miss | miss | miss | miss | |
| 61 | 08/09 | 19:00 | 77 | 71 | 82 | 30.09 | SSE | 4 | 0.00 |
| 62 | 08/09 | 18:59 | 77 | 71 | 82 | 30.08 | SSE | 2 | 0.00 |
| 63 | 08/09 | 18:58 | 77 | 71 | 82 | 30.09 | SSE | 4 | 0.00 |
| 64 | 08/09 | 18:57 | 77 | 71 | 82 | 30.09 | SSE | 1 | 0.00 |
| 65 | 08/09 | 18:56 | 77 | 71 | 82 | 30.09 | SSE | 2 | 0.00 |
| 66 | 08/09 | 18:55 | 77 | 71 | 82 | 30.09 | S | 5 | 0.00 |
| 67 | miss | miss | miss | miss | miss | miss | miss | miss | |
| 68 | 08/09 | 18:53 | 77 | 70 | 81 | 30.09 | S | 2 | 0.00 |
| 69 | miss | miss | miss | miss | miss | miss | miss | miss | |
| 70 | 08/09 | 18:51 | 77 | 70 | 81 | 30.09 | S | 5 | 0.00 |
| 71 | miss | miss | miss | miss | miss | miss | miss | miss | |
| 72 | 08/09 | 18:49 | 77 | 70 | 81 | 30.08 | S | 7 | 0.00 |
| 73 | miss | miss | miss | miss | miss | miss | miss | miss | |
| 74 | 08/09 | 18:48 | 77 | 70 | 81 | 30.09 | S | 4 | 0.00 |
| 75 | miss | miss | miss | miss | miss | miss | miss | miss | |
| 76 | 08/09 | 18:48 | 77 | 70 | 81 | 30.09 | S | 4 | 0.00 |
| 77 | miss | miss | miss | miss | miss | miss | miss | miss | |
| 78 | 08/09 | 18:48 | 77 | 70 | 81 | 30.09 | S | 4 | 0.00 |
| 79 | 08/09 | 18:00 | 78 | 72 | 82 | 30.08 | SSE | 3 | 0.00 |
| 80 | 08/09 | 17:00 | 78 | 69 | 75 | 30.09 | S | 5 | 0.00 |
| 81 | 08/09 | 16:00 | 79 | 69 | 74 | 30.11 | SE | 3 | 0.00 |
| 82 | 08/09 | 15:00 | 78 | 68 | 74 | 30.12 | ESE | 4 | 0.00 |
| 83 | 08/09 | 14:00 | 80 | 71 | 75 | 30.13 | S | 6 | 0.00 |
| 84 | 08/09 | 13:00 | 79 | 71 | 78 | 30.14 | SSE | 2 | 0.00 |
| 85 | 08/09 | 12:00 | 76 | 72 | 89 | 30.16 | E | 5 | 0.00 |
| 86 | 08/09 | 11:00 | 74 | 73 | 97 | 30.16 | NNE | 4 | 0.00 |
| 87 | 08/09 | 10:00 | 73 | 72 | 99 | 30.18 | W | 1 | 0.00 |
| 88 | 08/09 | 09:00 | 72 | 72 | 100 | 30.17 | N | 4 | 0.00 |
| 89 | 08/09 | 08:00 | 70 | 69 | 100 | 30.17 | NW | 1 | 0.00 |
| 90 | 08/09 | 07:00 | 70 | 69 | 100 | 30.17 | N | 2 | 0.00 |
| 91 | 08/09 | 06:00 | 70 | 69 | 100 | 30.17 | ESE | 1 | 0.00 |
| 92 | 08/09 | 05:00 | 70 | 69 | 100 | 30.14 | ESE | 0 | 0.01 |
| 93 | 08/09 | 04:00 | 70 | 69 | 100 | 30.15 | NE | 0 | 0.00 |
| 94 | 08/09 | 03:00 | 70 | 69 | 100 | 30.16 | SSE | 0 | 0.00 |
| 95 | 08/09 | 02:00 | 70 | 69 | 100 | 30.17 | E | 1 | 0.00 |
| 96 | 08/09 | 01:00 | 70 | 69 | 100 | 30.18 | WNW | 1 | 0.00 |
| 97 | 08/09 | 00:00 | 70 | 69 | 100 | 30.19 | SSW | 0 | -0.01 |